Terminal Aerodrome Forecast
Issued by NWS

Home | Current Version | Previous Version | Graphics & Text | Print | Product List | Glossary On
Versions: 1 2 3 4 5 6 7 8 9 10 11 12 13 14 15 16 17 18 19 20
000
FTUS43 KABR 231547 AAB
TAFPIR
TAF AMD
KPIR 231547Z 2316/2412 33015G25KT P6SM OVC035
     FM231800 32019G27KT P6SM SKC
     FM240300 31007KT P6SM SKC=

USA.gov is the U.S. government's official web portal to all federal, state and local government web resources and services.